sensor_id;sensor_type;location;lat;lon;timestamp;temperature;humidity
814;DHT22;389;48.710;9.392;2024-01-15T00:01:17;-0.80;94.90
814;DHT22;389;48.710;9.392;2024-01-15T00:03:42;-0.80;94.90
814;DHT22;389;48.710;9.392;2024-01-15T00:06:08;-0.80;95.00
814;DHT22;389;48.710;9.392;2024-01-15T00:08:34;-0.80;94.90
814;DHT22;389;48.710;9.392;2024-01-15T00:10:59;-0.80;94.90
814;DHT22;389;48.710;9.392;2024-01-15T00:13:25;-0.70;94.90
814;DHT22;389;48.710;9.392;2024-01-15T00:15:50;-0.70;94.90
814;DHT22;389;48.710;9.392;2024-01-15T00:18:16;-0.70;94.90
814;DHT22;389;48.710;9.392;2024-01-15T00:20:41;-0.70;94.90
814;DHT22;389;48.710;9.392;2024-01-15T00:23:07;-0.70;94.80
814;DHT22;389;48.710;9.392;2024-01-15T00:25:33;-0.70;94.80
814;DHT22;389;48.710;9.392;2024-01-15T00:27:59;-0.70;94.70
814;DHT22;389;48.710;9.392;2024-01-15T00:30:24;-0.70;94.70
814;DHT22;389;48.710;9.392;2024-01-15T00:32:50;-0.60;94.80
814;DHT22;389;48.710;9.392;2024-01-15T00:35:15;-0.70;94.70
814;DHT22;389;48.710;9.392;2024-01-15T00:37:41;-0.70;94.70
814;DHT22;389;48.710;9.392;2024-01-15T00:40:07;-0.70;94.70
814;DHT22;389;48.710;9.392;2024-01-15T00:42:33;-0.70;94.70
814;DHT22;389;48.710;9.392;2024-01-15T00:44:59;-0.70;94.70
814;DHT22;389;48.710;9.392;2024-01-15T00:47:25;-0.80;94.70
814;DHT22;389;48.710;9.392;2024-01-15T00:49:50;-0.80;94.80
814;DHT22;389;48.710;9.392;2024-01-15T00:52:16;-0.80;94.80
814;DHT22;389;48.710;9.392;2024-01-15T00:54:42;-0.80;94.80
814;DHT22;389;48.710;9.392;2024-01-15T00:57:07;-0.80;94.80
814;DHT22;389;48.710;9.392;2024-01-15T00:59:33;-0.80;94.90
814;DHT22;389;48.710;9.392;2024-01-15T01:01:58;-0.80;94.90
814;DHT22;389;48.710;9.392;2024-01-15T01:04:24;-0.70;95.00
814;DHT22;389;48.710;9.392;2024-01-15T01:06:49;-0.70;95.10
814;DHT22;389;48.710;9.392;2024-01-15T01:09:15;-0.70;95.10
814;DHT22;389;48.710;9.392;2024-01-15T01:11:40;-0.70;95.10
814;DHT22;389;48.710;9.392;2024-01-15T01:14:06;-0.60;95.20
814;DHT22;389;48.710;9.392;2024-01-15T01:16:32;-0.60;95.20
814;DHT22;389;48.710;9.392;2024-01-15T01:19:06;-0.60;95.20
814;DHT22;389;48.710;9.392;2024-01-15T01:21:33;-0.60;95.30
814;DHT22;389;48.710;9.392;2024-01-15T01:23:58;-0.60;95.30
814;DHT22;389;48.710;9.392;2024-01-15T01:26:24;-0.50;95.30
814;DHT22;389;48.710;9.392;2024-01-15T01:28:50;-0.50;95.30
814;DHT22;389;48.710;9.392;2024-01-15T01:31:15;-0.50;95.30
814;DHT22;389;48.710;9.392;2024-01-15T01:33:42;-0.50;95.40
814;DHT22;389;48.710;9.392;2024-01-15T01:36:09;-0.40;95.40
814;DHT22;389;48.710;9.392;2024-01-15T01:38:38;-0.40;95.40
814;DHT22;389;48.710;9.392;2024-01-15T01:41:03;-0.40;95.40
814;DHT22;389;48.710;9.392;2024-01-15T01:43:29;-0.30;95.50
814;DHT22;389;48.710;9.392;2024-01-15T01:45:57;-0.30;95.40
814;DHT22;389;48.710;9.392;2024-01-15T01:48:26;-0.20;95.50
814;DHT22;389;48.710;9.392;2024-01-15T01:50:57;-0.20;95.40
814;DHT22;389;48.710;9.392;2024-01-15T01:53:24;-0.10;95.30
814;DHT22;389;48.710;9.392;2024-01-15T01:55:50;-0.10;95.30
814;DHT22;389;48.710;9.392;2024-01-15T01:58:16;0.00;95.20
814;DHT22;389;48.710;9.392;2024-01-15T02:00:42;0.10;95.10
814;DHT22;389;48.710;9.392;2024-01-15T02:03:08;0.10;95.00
814;DHT22;389;48.710;9.392;2024-01-15T02:05:35;0.20;95.00
814;DHT22;389;48.710;9.392;2024-01-15T02:08:01;0.20;94.90
814;DHT22;389;48.710;9.392;2024-01-15T02:10:27;0.30;94.80
814;DHT22;389;48.710;9.392;2024-01-15T02:12:52;0.30;94.70
814;DHT22;389;48.710;9.392;2024-01-15T02:15:18;0.30;94.60
814;DHT22;389;48.710;9.392;2024-01-15T02:18:05;0.30;94.50
814;DHT22;389;48.710;9.392;2024-01-15T02:20:33;0.40;94.50
814;DHT22;389;48.710;9.392;2024-01-15T02:23:12;0.40;94.30
814;DHT22;389;48.710;9.392;2024-01-15T02:25:45;0.50;94.20
814;DHT22;389;48.710;9.392;2024-01-15T02:28:13;0.50;94.10
814;DHT22;389;48.710;9.392;2024-01-15T02:30:40;0.50;94.10
814;DHT22;389;48.710;9.392;2024-01-15T02:33:07;0.50;94.00
814;DHT22;389;48.710;9.392;2024-01-15T02:35:33;0.60;94.00
814;DHT22;389;48.710;9.392;2024-01-15T02:37:59;0.60;94.00
814;DHT22;389;48.710;9.392;2024-01-15T02:40:24;0.60;93.90
814;DHT22;389;48.710;9.392;2024-01-15T02:42:50;0.60;93.80
814;DHT22;389;48.710;9.392;2024-01-15T02:45:21;0.70;93.70
814;DHT22;389;48.710;9.392;2024-01-15T02:47:47;0.70;93.60
814;DHT22;389;48.710;9.392;2024-01-15T02:50:13;0.70;93.50
814;DHT22;389;48.710;9.392;2024-01-15T02:52:39;0.70;93.70
814;DHT22;389;48.710;9.392;2024-01-15T02:55:05;0.60;93.30
814;DHT22;389;48.710;9.392;2024-01-15T02:57:30;0.80;93.30
814;DHT22;389;48.710;9.392;2024-01-15T02:59:56;0.80;93.30
814;DHT22;389;48.710;9.392;2024-01-15T03:02:22;0.80;93.30
814;DHT22;389;48.710;9.392;2024-01-15T03:04:47;0.80;93.30
814;DHT22;389;48.710;9.392;2024-01-15T03:07:13;0.80;93.30
814;DHT22;389;48.710;9.392;2024-01-15T03:09:38;0.70;93.20
814;DHT22;389;48.710;9.392;2024-01-15T03:12:04;0.70;93.30
814;DHT22;389;48.710;9.392;2024-01-15T03:14:30;0.70;93.30
814;DHT22;389;48.710;9.392;2024-01-15T03:16:56;0.70;93.30
814;DHT22;389;48.710;9.392;2024-01-15T03:19:21;0.70;93.30
814;DHT22;389;48.710;9.392;2024-01-15T03:21:47;0.60;93.30
814;DHT22;389;48.710;9.392;2024-01-15T03:24:12;0.50;93.20
814;DHT22;389;48.710;9.392;2024-01-15T03:26:38;0.50;93.20
814;DHT22;389;48.710;9.392;2024-01-15T03:29:04;0.40;93.20
814;DHT22;389;48.710;9.392;2024-01-15T03:31:29;0.30;93.20
814;DHT22;389;48.710;9.392;2024-01-15T03:33:55;0.20;93.30
814;DHT22;389;48.710;9.392;2024-01-15T03:36:21;0.20;93.20
814;DHT22;389;48.710;9.392;2024-01-15T03:38:46;0.10;93.20
814;DHT22;389;48.710;9.392;2024-01-15T03:41:12;0.00;93.20
814;DHT22;389;48.710;9.392;2024-01-15T03:43:37;0.00;93.40
814;DHT22;389;48.710;9.392;2024-01-15T03:46:03;-0.10;93.40
814;DHT22;389;48.710;9.392;2024-01-15T03:48:29;-0.20;93.70
814;DHT22;389;48.710;9.392;2024-01-15T03:50:55;-0.30;93.50
814;DHT22;389;48.710;9.392;2024-01-15T03:53:21;-0.40;93.50
814;DHT22;389;48.710;9.392;2024-01-15T03:55:46;-0.40;93.60
814;DHT22;389;48.710;9.392;2024-01-15T03:58:12;-0.50;93.70
814;DHT22;389;48.710;9.392;2024-01-15T04:00:40;-0.60;93.80
814;DHT22;389;48.710;9.392;2024-01-15T04:03:06;-0.70;93.90
814;DHT22;389;48.710;9.392;2024-01-15T04:05:31;-0.70;94.10
814;DHT22;389;48.710;9.392;2024-01-15T04:07:57;-0.80;94.10
814;DHT22;389;48.710;9.392;2024-01-15T04:10:23;-0.80;94.30
814;DHT22;389;48.710;9.392;2024-01-15T04:12:48;-0.80;94.40
814;DHT22;389;48.710;9.392;2024-01-15T04:15:14;-0.90;94.70
814;DHT22;389;48.710;9.392;2024-01-15T04:17:39;-0.90;94.90
814;DHT22;389;48.710;9.392;2024-01-15T04:20:05;-0.90;95.00
814;DHT22;389;48.710;9.392;2024-01-15T04:22:32;-0.90;95.10
814;DHT22;389;48.710;9.392;2024-01-15T04:24:58;-0.90;95.30
814;DHT22;389;48.710;9.392;2024-01-15T04:27:24;-0.90;95.40
814;DHT22;389;48.710;9.392;2024-01-15T04:29:49;-0.90;95.60
814;DHT22;389;48.710;9.392;2024-01-15T04:32:15;-0.90;95.70
814;DHT22;389;48.710;9.392;2024-01-15T04:34:41;-0.80;95.80
814;DHT22;389;48.710;9.392;2024-01-15T04:37:06;-0.70;95.80
814;DHT22;389;48.710;9.392;2024-01-15T04:39:32;-0.70;95.90
814;DHT22;389;48.710;9.392;2024-01-15T04:41:58;-0.70;96.00
814;DHT22;389;48.710;9.392;2024-01-15T04:44:23;-0.60;96.10
814;DHT22;389;48.710;9.392;2024-01-15T04:46:49;-0.60;96.10
814;DHT22;389;48.710;9.392;2024-01-15T04:49:14;-0.50;96.20
814;DHT22;389;48.710;9.392;2024-01-15T04:51:40;-0.50;96.30
814;DHT22;389;48.710;9.392;2024-01-15T04:54:05;-0.40;96.30
814;DHT22;389;48.710;9.392;2024-01-15T04:56:31;-0.30;96.30
814;DHT22;389;48.710;9.392;2024-01-15T04:58:56;-0.20;96.30
814;DHT22;389;48.710;9.392;2024-01-15T05:01:22;-0.10;96.20
814;DHT22;389;48.710;9.392;2024-01-15T05:03:48;-0.10;96.10
814;DHT22;389;48.710;9.392;2024-01-15T05:06:14;0.00;96.00
814;DHT22;389;48.710;9.392;2024-01-15T05:08:40;0.10;96.00
814;DHT22;389;48.710;9.392;2024-01-15T05:11:05;0.10;95.90
814;DHT22;389;48.710;9.392;2024-01-15T05:13:31;0.20;95.80
814;DHT22;389;48.710;9.392;2024-01-15T05:15:57;0.20;95.70
814;DHT22;389;48.710;9.392;2024-01-15T05:18:22;0.40;95.70
814;DHT22;389;48.710;9.392;2024-01-15T05:20:48;0.30;95.60
814;DHT22;389;48.710;9.392;2024-01-15T05:23:13;0.30;95.60
814;DHT22;389;48.710;9.392;2024-01-15T05:25:39;0.40;95.60
814;DHT22;389;48.710;9.392;2024-01-15T05:28:05;0.40;95.50
814;DHT22;389;48.710;9.392;2024-01-15T05:30:31;0.50;95.40
814;DHT22;389;48.710;9.392;2024-01-15T05:32:56;0.60;95.50
814;DHT22;389;48.710;9.392;2024-01-15T05:35:23;0.60;95.40
814;DHT22;389;48.710;9.392;2024-01-15T05:37:48;0.70;95.30
814;DHT22;389;48.710;9.392;2024-01-15T05:40:14;0.80;95.20
814;DHT22;389;48.710;9.392;2024-01-15T05:42:41;0.80;95.10
814;DHT22;389;48.710;9.392;2024-01-15T05:45:07;0.90;95.10
814;DHT22;389;48.710;9.392;2024-01-15T05:47:33;1.10;95.00
814;DHT22;389;48.710;9.392;2024-01-15T05:50:00;1.00;94.80
814;DHT22;389;48.710;9.392;2024-01-15T05:52:25;1.10;94.80
814;DHT22;389;48.710;9.392;2024-01-15T05:54:51;1.10;94.80
814;DHT22;389;48.710;9.392;2024-01-15T05:57:16;1.30;94.80
814;DHT22;389;48.710;9.392;2024-01-15T05:59:44;1.20;94.70
814;DHT22;389;48.710;9.392;2024-01-15T06:02:09;1.20;94.60
814;DHT22;389;48.710;9.392;2024-01-15T06:04:36;1.20;94.60
814;DHT22;389;48.710;9.392;2024-01-15T06:07:01;1.20;94.50
814;DHT22;389;48.710;9.392;2024-01-15T06:09:27;1.30;94.50
814;DHT22;389;48.710;9.392;2024-01-15T06:11:53;1.30;94.40
814;DHT22;389;48.710;9.392;2024-01-15T06:14:19;1.30;94.40
814;DHT22;389;48.710;9.392;2024-01-15T06:16:44;1.30;94.40
814;DHT22;389;48.710;9.392;2024-01-15T06:19:10;1.30;94.30
814;DHT22;389;48.710;9.392;2024-01-15T06:21:35;1.40;94.40
814;DHT22;389;48.710;9.392;2024-01-15T06:24:01;1.40;94.30
814;DHT22;389;48.710;9.392;2024-01-15T06:26:27;1.40;94.20
814;DHT22;389;48.710;9.392;2024-01-15T06:28:52;1.50;94.20
814;DHT22;389;48.710;9.392;2024-01-15T06:31:18;1.50;94.10
814;DHT22;389;48.710;9.392;2024-01-15T06:33:44;1.50;94.10
814;DHT22;389;48.710;9.392;2024-01-15T06:36:12;1.50;94.00
814;DHT22;389;48.710;9.392;2024-01-15T06:38:38;1.50;94.00
814;DHT22;389;48.710;9.392;2024-01-15T06:41:03;1.60;94.10
814;DHT22;389;48.710;9.392;2024-01-15T06:43:29;1.60;94.10
814;DHT22;389;48.710;9.392;2024-01-15T06:45:54;1.60;94.10
814;DHT22;389;48.710;9.392;2024-01-15T06:48:20;1.60;94.00
814;DHT22;389;48.710;9.392;2024-01-15T06:53:16;1.60;94.10
814;DHT22;389;48.710;9.392;2024-01-15T06:55:42;1.60;94.10
814;DHT22;389;48.710;9.392;2024-01-15T06:58:07;1.60;94.20
814;DHT22;389;48.710;9.392;2024-01-15T07:00:33;1.60;94.20
814;DHT22;389;48.710;9.392;2024-01-15T07:02:58;1.60;94.30
814;DHT22;389;48.710;9.392;2024-01-15T07:05:24;1.60;94.20
814;DHT22;389;48.710;9.392;2024-01-15T07:07:50;1.60;94.20
814;DHT22;389;48.710;9.392;2024-01-15T07:10:16;1.60;94.10
814;DHT22;389;48.710;9.392;2024-01-15T07:12:42;1.60;94.10
814;DHT22;389;48.710;9.392;2024-01-15T07:15:08;1.60;94.10
814;DHT22;389;48.710;9.392;2024-01-15T07:17:35;1.60;94.10
814;DHT22;389;48.710;9.392;2024-01-15T07:20:01;1.60;94.00
814;DHT22;389;48.710;9.392;2024-01-15T07:22:26;1.60;93.90
814;DHT22;389;48.710;9.392;2024-01-15T07:24:52;1.60;93.90
814;DHT22;389;48.710;9.392;2024-01-15T07:27:18;1.70;93.80
814;DHT22;389;48.710;9.392;2024-01-15T07:29:43;1.70;93.80
814;DHT22;389;48.710;9.392;2024-01-15T07:32:10;1.70;93.70
814;DHT22;389;48.710;9.392;2024-01-15T07:34:35;1.70;93.70
814;DHT22;389;48.710;9.392;2024-01-15T07:37:02;1.70;93.70
814;DHT22;389;48.710;9.392;2024-01-15T07:39:27;1.70;93.70
814;DHT22;389;48.710;9.392;2024-01-15T07:41:54;1.70;93.60
814;DHT22;389;48.710;9.392;2024-01-15T07:44:19;1.70;93.50
814;DHT22;389;48.710;9.392;2024-01-15T07:46:48;1.80;93.40
814;DHT22;389;48.710;9.392;2024-01-15T07:49:14;1.80;93.40
814;DHT22;389;48.710;9.392;2024-01-15T07:51:40;1.80;93.40
814;DHT22;389;48.710;9.392;2024-01-15T07:54:06;1.80;93.30
814;DHT22;389;48.710;9.392;2024-01-15T07:56:32;1.80;93.40
814;DHT22;389;48.710;9.392;2024-01-15T07:58:57;1.80;93.30
814;DHT22;389;48.710;9.392;2024-01-15T08:01:23;1.90;93.10
814;DHT22;389;48.710;9.392;2024-01-15T08:03:49;1.90;92.90
814;DHT22;389;48.710;9.392;2024-01-15T08:06:14;1.90;92.80
814;DHT22;389;48.710;9.392;2024-01-15T08:08:40;2.00;92.50
814;DHT22;389;48.710;9.392;2024-01-15T08:11:06;2.10;92.50
814;DHT22;389;48.710;9.392;2024-01-15T08:13:31;2.10;92.40
814;DHT22;389;48.710;9.392;2024-01-15T08:15:57;2.10;92.30
814;DHT22;389;48.710;9.392;2024-01-15T08:18:22;2.10;92.30
814;DHT22;389;48.710;9.392;2024-01-15T08:20:48;2.10;92.30
814;DHT22;389;48.710;9.392;2024-01-15T08:23:14;2.20;92.30
814;DHT22;389;48.710;9.392;2024-01-15T08:25:40;2.20;92.20
814;DHT22;389;48.710;9.392;2024-01-15T08:28:05;2.20;92.20
814;DHT22;389;48.710;9.392;2024-01-15T08:30:31;2.30;92.20
814;DHT22;389;48.710;9.392;2024-01-15T08:32:56;2.30;92.10
814;DHT22;389;48.710;9.392;2024-01-15T08:35:22;2.30;91.70
814;DHT22;389;48.710;9.392;2024-01-15T08:37:49;2.30;91.50
814;DHT22;389;48.710;9.392;2024-01-15T08:40:15;2.40;91.30
814;DHT22;389;48.710;9.392;2024-01-15T08:42:41;2.50;91.10
814;DHT22;389;48.710;9.392;2024-01-15T08:45:07;2.60;90.90
814;DHT22;389;48.710;9.392;2024-01-15T08:47:32;2.60;90.70
814;DHT22;389;48.710;9.392;2024-01-15T08:49:58;2.70;90.20
814;DHT22;389;48.710;9.392;2024-01-15T08:52:24;2.70;89.40
814;DHT22;389;48.710;9.392;2024-01-15T08:54:49;2.70;89.40
814;DHT22;389;48.710;9.392;2024-01-15T08:57:15;2.70;89.10
814;DHT22;389;48.710;9.392;2024-01-15T08:59:41;2.90;89.30
814;DHT22;389;48.710;9.392;2024-01-15T09:02:07;3.10;89.20
814;DHT22;389;48.710;9.392;2024-01-15T09:04:33;3.00;88.90
814;DHT22;389;48.710;9.392;2024-01-15T09:06:58;3.10;88.40
814;DHT22;389;48.710;9.392;2024-01-15T09:09:24;3.10;88.10
814;DHT22;389;48.710;9.392;2024-01-15T09:11:51;3.20;88.10
814;DHT22;389;48.710;9.392;2024-01-15T09:14:16;3.20;87.70
814;DHT22;389;48.710;9.392;2024-01-15T09:16:42;3.30;87.60
814;DHT22;389;48.710;9.392;2024-01-15T09:19:07;3.40;87.40
814;DHT22;389;48.710;9.392;2024-01-15T09:21:33;3.40;86.90
814;DHT22;389;48.710;9.392;2024-01-15T09:23:58;3.50;86.70
814;DHT22;389;48.710;9.392;2024-01-15T09:26:24;3.50;86.00
814;DHT22;389;48.710;9.392;2024-01-15T09:28:49;3.50;85.90
814;DHT22;389;48.710;9.392;2024-01-15T09:31:15;3.60;86.10
814;DHT22;389;48.710;9.392;2024-01-15T09:33:43;3.60;85.50
814;DHT22;389;48.710;9.392;2024-01-15T09:36:09;3.60;84.60
814;DHT22;389;48.710;9.392;2024-01-15T09:38:34;3.60;84.60
814;DHT22;389;48.710;9.392;2024-01-15T09:41:00;3.60;84.40
814;DHT22;389;48.710;9.392;2024-01-15T09:43:26;3.60;84.40
814;DHT22;389;48.710;9.392;2024-01-15T09:45:53;3.60;84.20
814;DHT22;389;48.710;9.392;2024-01-15T09:48:19;3.70;84.20
814;DHT22;389;48.710;9.392;2024-01-15T09:50:45;3.80;83.90
814;DHT22;389;48.710;9.392;2024-01-15T09:53:11;3.80;83.50
814;DHT22;389;48.710;9.392;2024-01-15T09:55:39;3.90;83.50
814;DHT22;389;48.710;9.392;2024-01-15T09:58:05;3.90;83.20
814;DHT22;389;48.710;9.392;2024-01-15T10:00:31;4.00;83.00
814;DHT22;389;48.710;9.392;2024-01-15T10:02:58;4.00;83.00
814;DHT22;389;48.710;9.392;2024-01-15T10:05:26;4.10;83.10
814;DHT22;389;48.710;9.392;2024-01-15T10:07:53;4.10;82.60
814;DHT22;389;48.710;9.392;2024-01-15T10:10:20;4.10;82.10
814;DHT22;389;48.710;9.392;2024-01-15T10:12:47;4.20;82.10
814;DHT22;389;48.710;9.392;2024-01-15T10:15:13;4.30;82.20
814;DHT22;389;48.710;9.392;2024-01-15T10:17:39;4.20;81.80
814;DHT22;389;48.710;9.392;2024-01-15T10:20:12;4.20;81.90
814;DHT22;389;48.710;9.392;2024-01-15T10:22:41;4.20;81.50
814;DHT22;389;48.710;9.392;2024-01-15T10:25:14;4.20;81.70
814;DHT22;389;48.710;9.392;2024-01-15T10:27:41;4.30;82.00
814;DHT22;389;48.710;9.392;2024-01-15T10:30:10;4.30;81.80
814;DHT22;389;48.710;9.392;2024-01-15T10:32:36;4.30;81.70
814;DHT22;389;48.710;9.392;2024-01-15T10:35:02;4.30;81.50
814;DHT22;389;48.710;9.392;2024-01-15T10:37:33;4.30;81.60
814;DHT22;389;48.710;9.392;2024-01-15T10:40:00;4.40;81.50
814;DHT22;389;48.710;9.392;2024-01-15T10:42:26;4.40;81.50
814;DHT22;389;48.710;9.392;2024-01-15T10:44:52;4.40;81.00
814;DHT22;389;48.710;9.392;2024-01-15T10:47:18;4.30;81.10
814;DHT22;389;48.710;9.392;2024-01-15T10:49:45;4.30;81.30
814;DHT22;389;48.710;9.392;2024-01-15T10:52:11;4.30;81.30
814;DHT22;389;48.710;9.392;2024-01-15T10:54:37;4.30;81.50
814;DHT22;389;48.710;9.392;2024-01-15T10:57:04;4.40;81.60
814;DHT22;389;48.710;9.392;2024-01-15T10:59:31;4.40;81.60
814;DHT22;389;48.710;9.392;2024-01-15T11:01:57;4.40;81.50
814;DHT22;389;48.710;9.392;2024-01-15T11:04:24;4.40;81.70
814;DHT22;389;48.710;9.392;2024-01-15T11:06:53;4.40;81.70
814;DHT22;389;48.710;9.392;2024-01-15T11:09:19;4.50;81.80
814;DHT22;389;48.710;9.392;2024-01-15T11:11:46;4.50;81.80
814;DHT22;389;48.710;9.392;2024-01-15T11:14:40;4.50;81.80
814;DHT22;389;48.710;9.392;2024-01-15T11:17:09;4.50;81.40
814;DHT22;389;48.710;9.392;2024-01-15T11:19:47;4.50;81.80
814;DHT22;389;48.710;9.392;2024-01-15T11:25:12;4.50;82.20
814;DHT22;389;48.710;9.392;2024-01-15T11:27:49;4.50;82.20
814;DHT22;389;48.710;9.392;2024-01-15T11:30:18;4.60;82.40
814;DHT22;389;48.710;9.392;2024-01-15T11:32:45;4.70;82.60
814;DHT22;389;48.710;9.392;2024-01-15T11:35:13;4.70;82.60
814;DHT22;389;48.710;9.392;2024-01-15T11:40:21;4.60;83.40
814;DHT22;389;48.710;9.392;2024-01-15T11:42:47;4.50;83.70
814;DHT22;389;48.710;9.392;2024-01-15T11:45:15;4.60;84.00
814;DHT22;389;48.710;9.392;2024-01-15T11:48:15;4.60;84.20
814;DHT22;389;48.710;9.392;2024-01-15T11:50:47;4.60;84.20
814;DHT22;389;48.710;9.392;2024-01-15T11:53:20;4.50;84.00
814;DHT22;389;48.710;9.392;2024-01-15T11:55:46;4.50;84.00
814;DHT22;389;48.710;9.392;2024-01-15T11:58:14;4.50;84.20
814;DHT22;389;48.710;9.392;2024-01-15T12:00:52;4.60;84.30
814;DHT22;389;48.710;9.392;2024-01-15T12:03:20;4.60;84.20
814;DHT22;389;48.710;9.392;2024-01-15T12:05:46;4.60;84.30
814;DHT22;389;48.710;9.392;2024-01-15T12:08:11;4.60;84.50
814;DHT22;389;48.710;9.392;2024-01-15T12:10:38;4.60;84.70
814;DHT22;389;48.710;9.392;2024-01-15T12:13:13;4.60;84.90
814;DHT22;389;48.710;9.392;2024-01-15T12:15:40;4.50;84.90
814;DHT22;389;48.710;9.392;2024-01-15T12:18:12;4.40;85.10
814;DHT22;389;48.710;9.392;2024-01-15T12:20:40;4.40;85.50
814;DHT22;389;48.710;9.392;2024-01-15T12:23:06;4.40;86.50
814;DHT22;389;48.710;9.392;2024-01-15T12:25:33;4.40;86.40
814;DHT22;389;48.710;9.392;2024-01-15T12:28:00;4.40;87.50
814;DHT22;389;48.710;9.392;2024-01-15T12:30:30;4.30;89.30
814;DHT22;389;48.710;9.392;2024-01-15T12:33:00;4.30;90.00
814;DHT22;389;48.710;9.392;2024-01-15T12:35:26;4.30;90.40
814;DHT22;389;48.710;9.392;2024-01-15T12:37:54;4.20;90.70
814;DHT22;389;48.710;9.392;2024-01-15T12:40:20;4.20;91.00
814;DHT22;389;48.710;9.392;2024-01-15T12:42:46;4.20;91.30
814;DHT22;389;48.710;9.392;2024-01-15T12:45:12;4.30;91.70
814;DHT22;389;48.710;9.392;2024-01-15T12:47:39;4.10;92.00
814;DHT22;389;48.710;9.392;2024-01-15T12:50:09;4.00;92.40
814;DHT22;389;48.710;9.392;2024-01-15T12:52:35;3.90;92.90
814;DHT22;389;48.710;9.392;2024-01-15T12:55:06;3.90;93.40
814;DHT22;389;48.710;9.392;2024-01-15T12:57:32;3.80;93.80
814;DHT22;389;48.710;9.392;2024-01-15T12:59:58;3.70;94.40
814;DHT22;389;48.710;9.392;2024-01-15T13:02:24;3.60;94.80
814;DHT22;389;48.710;9.392;2024-01-15T13:04:49;3.50;95.20
814;DHT22;389;48.710;9.392;2024-01-15T13:07:15;3.40;95.50
814;DHT22;389;48.710;9.392;2024-01-15T13:09:40;3.30;95.90
814;DHT22;389;48.710;9.392;2024-01-15T13:12:06;3.30;96.30
814;DHT22;389;48.710;9.392;2024-01-15T13:14:32;3.20;96.60
814;DHT22;389;48.710;9.392;2024-01-15T13:16:58;3.20;97.00
814;DHT22;389;48.710;9.392;2024-01-15T13:19:25;3.20;97.20
814;DHT22;389;48.710;9.392;2024-01-15T13:21:50;3.20;97.40
814;DHT22;389;48.710;9.392;2024-01-15T13:24:17;3.20;97.50
814;DHT22;389;48.710;9.392;2024-01-15T13:26:43;3.20;97.60
814;DHT22;389;48.710;9.392;2024-01-15T13:29:09;3.20;97.70
814;DHT22;389;48.710;9.392;2024-01-15T13:31:34;3.20;97.80
814;DHT22;389;48.710;9.392;2024-01-15T13:34:00;3.10;98.00
814;DHT22;389;48.710;9.392;2024-01-15T13:36:27;3.10;98.30
814;DHT22;389;48.710;9.392;2024-01-15T13:38:53;3.10;98.10
814;DHT22;389;48.710;9.392;2024-01-15T13:41:20;3.00;98.20
814;DHT22;389;48.710;9.392;2024-01-15T13:43:49;3.00;98.30
814;DHT22;389;48.710;9.392;2024-01-15T13:46:16;3.00;98.40
814;DHT22;389;48.710;9.392;2024-01-15T13:48:42;3.00;98.60
814;DHT22;389;48.710;9.392;2024-01-15T13:51:08;3.00;98.70
814;DHT22;389;48.710;9.392;2024-01-15T13:53:34;3.00;98.80
814;DHT22;389;48.710;9.392;2024-01-15T13:55:59;3.00;98.90
814;DHT22;389;48.710;9.392;2024-01-15T13:58:25;2.90;98.90
814;DHT22;389;48.710;9.392;2024-01-15T14:00:51;3.00;99.00
814;DHT22;389;48.710;9.392;2024-01-15T14:03:17;2.90;99.00
814;DHT22;389;48.710;9.392;2024-01-15T14:05:43;2.90;99.10
814;DHT22;389;48.710;9.392;2024-01-15T14:08:08;2.90;99.20
814;DHT22;389;48.710;9.392;2024-01-15T14:10:34;2.90;99.20
814;DHT22;389;48.710;9.392;2024-01-15T14:12:59;2.90;99.30
814;DHT22;389;48.710;9.392;2024-01-15T14:15:25;2.90;99.40
814;DHT22;389;48.710;9.392;2024-01-15T14:17:50;2.90;99.50
814;DHT22;389;48.710;9.392;2024-01-15T14:20:17;2.80;99.50
814;DHT22;389;48.710;9.392;2024-01-15T14:22:43;2.80;99.60
814;DHT22;389;48.710;9.392;2024-01-15T14:25:08;2.80;99.70
814;DHT22;389;48.710;9.392;2024-01-15T14:27:34;2.80;99.80
814;DHT22;389;48.710;9.392;2024-01-15T14:30:00;2.70;99.80
814;DHT22;389;48.710;9.392;2024-01-15T14:32:26;2.70;99.90
814;DHT22;389;48.710;9.392;2024-01-15T14:34:51;2.70;99.90
814;DHT22;389;48.710;9.392;2024-01-15T14:37:17;2.70;99.90
814;DHT22;389;48.710;9.392;2024-01-15T14:39:42;2.70;99.90
814;DHT22;389;48.710;9.392;2024-01-15T14:42:08;2.70;99.90
814;DHT22;389;48.710;9.392;2024-01-15T14:44:34;2.70;99.90
814;DHT22;389;48.710;9.392;2024-01-15T14:47:00;2.70;99.90
814;DHT22;389;48.710;9.392;2024-01-15T14:49:25;2.70;99.90
814;DHT22;389;48.710;9.392;2024-01-15T14:51:51;2.70;99.90
814;DHT22;389;48.710;9.392;2024-01-15T14:54:17;2.60;99.90
814;DHT22;389;48.710;9.392;2024-01-15T14:56:42;2.60;99.90
814;DHT22;389;48.710;9.392;2024-01-15T14:59:08;2.60;99.90
814;DHT22;389;48.710;9.392;2024-01-15T15:01:34;2.60;99.90
814;DHT22;389;48.710;9.392;2024-01-15T15:04:00;2.50;99.80
814;DHT22;389;48.710;9.392;2024-01-15T15:06:25;2.50;99.80
814;DHT22;389;48.710;9.392;2024-01-15T15:08:53;2.70;99.80
814;DHT22;389;48.710;9.392;2024-01-15T15:11:20;2.60;99.70
814;DHT22;389;48.710;9.392;2024-01-15T15:13:48;2.50;99.60
814;DHT22;389;48.710;9.392;2024-01-15T15:16:15;2.50;99.60
814;DHT22;389;48.710;9.392;2024-01-15T15:18:40;2.50;99.40
814;DHT22;389;48.710;9.392;2024-01-15T15:47:28;2.30;98.70
814;DHT22;389;48.710;9.392;2024-01-15T15:53:12;2.20;98.60
814;DHT22;389;48.710;9.392;2024-01-15T15:55:38;2.20;98.50
814;DHT22;389;48.710;9.392;2024-01-15T15:58:06;2.10;97.90
814;DHT22;389;48.710;9.392;2024-01-15T16:00:32;2.10;97.80
814;DHT22;389;48.710;9.392;2024-01-15T16:02:58;2.00;97.70
814;DHT22;389;48.710;9.392;2024-01-15T16:15:42;2.00;97.50
814;DHT22;389;48.710;9.392;2024-01-15T16:18:07;2.00;97.40
814;DHT22;389;48.710;9.392;2024-01-15T16:20:33;2.00;97.30
814;DHT22;389;48.710;9.392;2024-01-15T16:22:58;1.90;97.30
814;DHT22;389;48.710;9.392;2024-01-15T16:25:24;1.90;97.30
814;DHT22;389;48.710;9.392;2024-01-15T16:27:49;1.90;97.30
814;DHT22;389;48.710;9.392;2024-01-15T16:30:15;1.90;97.30
814;DHT22;389;48.710;9.392;2024-01-15T16:32:41;1.90;97.30
814;DHT22;389;48.710;9.392;2024-01-15T16:35:06;1.90;97.10
814;DHT22;389;48.710;9.392;2024-01-15T16:37:32;1.90;96.90
814;DHT22;389;48.710;9.392;2024-01-15T16:39:57;1.90;96.90
814;DHT22;389;48.710;9.392;2024-01-15T16:42:23;1.80;96.70
814;DHT22;389;48.710;9.392;2024-01-15T16:44:49;1.80;96.40
814;DHT22;389;48.710;9.392;2024-01-15T16:47:15;1.80;96.20
814;DHT22;389;48.710;9.392;2024-01-15T16:49:41;1.80;96.30
814;DHT22;389;48.710;9.392;2024-01-15T16:52:06;1.80;96.20
814;DHT22;389;48.710;9.392;2024-01-15T16:54:33;1.80;96.10
814;DHT22;389;48.710;9.392;2024-01-15T16:57:00;1.80;96.00
814;DHT22;389;48.710;9.392;2024-01-15T16:59:25;1.80;95.90
814;DHT22;389;48.710;9.392;2024-01-15T17:01:51;1.80;95.90
814;DHT22;389;48.710;9.392;2024-01-15T17:04:17;1.70;95.80
814;DHT22;389;48.710;9.392;2024-01-15T17:06:42;1.70;95.80
814;DHT22;389;48.710;9.392;2024-01-15T17:09:08;1.70;96.10
814;DHT22;389;48.710;9.392;2024-01-15T17:11:33;1.70;96.00
814;DHT22;389;48.710;9.392;2024-01-15T17:13:59;1.70;95.70
814;DHT22;389;48.710;9.392;2024-01-15T17:16:25;1.70;95.80
814;DHT22;389;48.710;9.392;2024-01-15T17:18:50;1.70;95.70
814;DHT22;389;48.710;9.392;2024-01-15T17:21:16;1.70;95.50
814;DHT22;389;48.710;9.392;2024-01-15T17:23:41;1.70;95.40
814;DHT22;389;48.710;9.392;2024-01-15T17:26:07;1.70;95.20
814;DHT22;389;48.710;9.392;2024-01-15T17:28:32;1.70;95.20
814;DHT22;389;48.710;9.392;2024-01-15T17:30:58;1.70;95.10